sensor_id;sensor_type;location;lat;lon;timestamp;temperature;humidity
60242;SHT30;46103;52.076;113.488;2023-10-31T00:00:07;-2.42;62.47
60242;SHT30;46103;52.076;113.488;2023-10-31T00:03:12;-2.48;63.47
60242;SHT30;46103;52.076;113.488;2023-10-31T00:06:16;-2.45;63.23
60242;SHT30;46103;52.076;113.488;2023-10-31T00:09:19;-2.35;62.63
60242;SHT30;46103;52.076;113.488;2023-10-31T00:12:22;-2.28;61.32
60242;SHT30;46103;52.076;113.488;2023-10-31T00:15:27;-2.15;61.39
60242;SHT30;46103;52.076;113.488;2023-10-31T00:18:33;-2.07;61.21
60242;SHT30;46103;52.076;113.488;2023-10-31T00:21:37;-2.00;60.69
60242;SHT30;46103;52.076;113.488;2023-10-31T00:24:41;-1.89;60.02
60242;SHT30;46103;52.076;113.488;2023-10-31T00:27:46;-1.84;60.27
60242;SHT30;46103;52.076;113.488;2023-10-31T00:30:50;-1.73;59.47
60242;SHT30;46103;52.076;113.488;2023-10-31T00:33:53;-1.62;59.10
60242;SHT30;46103;52.076;113.488;2023-10-31T00:36:59;-1.48;59.46
60242;SHT30;46103;52.076;113.488;2023-10-31T00:40:03;-1.36;60.99
60242;SHT30;46103;52.076;113.488;2023-10-31T00:43:06;-1.27;60.93
60242;SHT30;46103;52.076;113.488;2023-10-31T00:46:11;-1.19;60.85
60242;SHT30;46103;52.076;113.488;2023-10-31T00:49:14;-0.98;59.64
60242;SHT30;46103;52.076;113.488;2023-10-31T00:52:20;-0.94;61.07
60242;SHT30;46103;52.076;113.488;2023-10-31T00:55:23;-0.80;60.90
60242;SHT30;46103;52.076;113.488;2023-10-31T00:58:29;-0.69;62.22
60242;SHT30;46103;52.076;113.488;2023-10-31T01:01:32;-0.66;62.50
60242;SHT30;46103;52.076;113.488;2023-10-31T01:04:37;-0.77;63.09
60242;SHT30;46103;52.076;113.488;2023-10-31T01:07:41;-0.80;63.02
60242;SHT30;46103;52.076;113.488;2023-10-31T01:10:45;-0.87;63.27
60242;SHT30;46103;52.076;113.488;2023-10-31T01:13:49;-1.00;63.41
60242;SHT30;46103;52.076;113.488;2023-10-31T01:16:53;-1.12;64.04
60242;SHT30;46103;52.076;113.488;2023-10-31T01:19:57;-1.18;64.17
60242;SHT30;46103;52.076;113.488;2023-10-31T01:23:01;-1.21;64.36
60242;SHT30;46103;52.076;113.488;2023-10-31T01:26:05;-1.34;64.77
60242;SHT30;46103;52.076;113.488;2023-10-31T01:29:10;-1.25;64.49
60242;SHT30;46103;52.076;113.488;2023-10-31T01:32:14;-1.51;65.01
60242;SHT30;46103;52.076;113.488;2023-10-31T01:35:24;-1.51;65.39
60242;SHT30;46103;52.076;113.488;2023-10-31T01:38:28;-1.64;65.46
60242;SHT30;46103;52.076;113.488;2023-10-31T01:41:32;-1.73;65.64
60242;SHT30;46103;52.076;113.488;2023-10-31T01:44:35;-1.86;65.34
60242;SHT30;46103;52.076;113.488;2023-10-31T01:47:40;-1.95;65.80
60242;SHT30;46103;52.076;113.488;2023-10-31T01:50:43;-1.97;65.92
60242;SHT30;46103;52.076;113.488;2023-10-31T01:53:48;-1.98;65.90
60242;SHT30;46103;52.076;113.488;2023-10-31T01:56:55;-1.86;65.51
60242;SHT30;46103;52.076;113.488;2023-10-31T02:00:01;-1.98;65.90
60242;SHT30;46103;52.076;113.488;2023-10-31T02:03:13;-1.97;65.94
60242;SHT30;46103;52.076;113.488;2023-10-31T02:06:17;-2.07;66.31
60242;SHT30;46103;52.076;113.488;2023-10-31T02:09:21;-1.90;66.09
60242;SHT30;46103;52.076;113.488;2023-10-31T02:12:34;-1.64;65.35
60242;SHT30;46103;52.076;113.488;2023-10-31T02:15:55;-1.48;64.87
60242;SHT30;46103;52.076;113.488;2023-10-31T02:18:59;-1.38;64.40
60242;SHT30;46103;52.076;113.488;2023-10-31T02:22:03;-1.30;64.20
60242;SHT30;46103;52.076;113.488;2023-10-31T02:25:25;-1.12;63.52
60242;SHT30;46103;52.076;113.488;2023-10-31T02:28:29;-0.97;63.11
60242;SHT30;46103;52.076;113.488;2023-10-31T02:31:34;-0.84;62.27
60242;SHT30;46103;52.076;113.488;2023-10-31T02:34:37;-0.86;61.86
60242;SHT30;46103;52.076;113.488;2023-10-31T02:37:41;-0.74;61.30
60242;SHT30;46103;52.076;113.488;2023-10-31T02:40:45;-0.65;60.57
60242;SHT30;46103;52.076;113.488;2023-10-31T02:43:50;-0.69;60.79
60242;SHT30;46103;52.076;113.488;2023-10-31T02:46:55;-0.70;60.63
60242;SHT30;46103;52.076;113.488;2023-10-31T02:49:59;-0.77;59.58
60242;SHT30;46103;52.076;113.488;2023-10-31T02:53:03;-0.81;60.02
60242;SHT30;46103;52.076;113.488;2023-10-31T02:56:07;-0.91;60.47
60242;SHT30;46103;52.076;113.488;2023-10-31T02:59:12;-0.83;60.20
60242;SHT30;46103;52.076;113.488;2023-10-31T03:02:17;-0.91;60.20
60242;SHT30;46103;52.076;113.488;2023-10-31T03:05:22;-0.74;59.78
60242;SHT30;46103;52.076;113.488;2023-10-31T03:08:26;-0.53;59.44
60242;SHT30;46103;52.076;113.488;2023-10-31T03:11:31;-0.42;57.70
60242;SHT30;46103;52.076;113.488;2023-10-31T03:14:36;-0.38;56.92
60242;SHT30;46103;52.076;113.488;2023-10-31T03:17:40;-0.26;55.37
60242;SHT30;46103;52.076;113.488;2023-10-31T03:20:45;-0.19;54.90
60242;SHT30;46103;52.076;113.488;2023-10-31T03:23:52;-0.15;55.98
60242;SHT30;46103;52.076;113.488;2023-10-31T03:27:05;0.07;55.62
60242;SHT30;46103;52.076;113.488;2023-10-31T03:30:11;0.14;53.39
60242;SHT30;46103;52.076;113.488;2023-10-31T03:33:16;0.31;52.75
60242;SHT30;46103;52.076;113.488;2023-10-31T03:36:19;0.44;51.53
60242;SHT30;46103;52.076;113.488;2023-10-31T03:39:23;0.69;49.25
60242;SHT30;46103;52.076;113.488;2023-10-31T03:42:26;0.97;48.11
60242;SHT30;46103;52.076;113.488;2023-10-31T03:45:30;1.15;46.93
60242;SHT30;46103;52.076;113.488;2023-10-31T03:48:34;1.30;47.00
60242;SHT30;46103;52.076;113.488;2023-10-31T03:51:38;1.10;47.44
60242;SHT30;46103;52.076;113.488;2023-10-31T03:54:41;1.15;47.84
60242;SHT30;46103;52.076;113.488;2023-10-31T03:57:47;1.37;47.82
60242;SHT30;46103;52.076;113.488;2023-10-31T04:00:51;1.46;46.94
60242;SHT30;46103;52.076;113.488;2023-10-31T04:03:58;1.50;46.39
60242;SHT30;46103;52.076;113.488;2023-10-31T04:07:01;1.33;46.70
60242;SHT30;46103;52.076;113.488;2023-10-31T04:10:06;1.68;45.98
60242;SHT30;46103;52.076;113.488;2023-10-31T04:13:09;1.95;45.19
60242;SHT30;46103;52.076;113.488;2023-10-31T04:16:12;2.05;44.24
60242;SHT30;46103;52.076;113.488;2023-10-31T04:19:16;2.25;43.98
60242;SHT30;46103;52.076;113.488;2023-10-31T04:22:20;2.41;43.71
60242;SHT30;46103;52.076;113.488;2023-10-31T04:25:24;2.51;43.34
60242;SHT30;46103;52.076;113.488;2023-10-31T04:28:30;2.48;42.70
60242;SHT30;46103;52.076;113.488;2023-10-31T04:31:34;2.51;42.87
60242;SHT30;46103;52.076;113.488;2023-10-31T04:34:45;2.66;42.34
60242;SHT30;46103;52.076;113.488;2023-10-31T04:37:49;2.75;41.75
60242;SHT30;46103;52.076;113.488;2023-10-31T04:40:53;2.36;42.21
60242;SHT30;46103;52.076;113.488;2023-10-31T04:43:57;2.38;41.62
60242;SHT30;46103;52.076;113.488;2023-10-31T04:47:01;2.85;41.41
60242;SHT30;46103;52.076;113.488;2023-10-31T04:50:06;3.40;39.72
60242;SHT30;46103;52.076;113.488;2023-10-31T04:53:10;3.53;38.56
60242;SHT30;46103;52.076;113.488;2023-10-31T04:56:15;3.23;39.01
60242;SHT30;46103;52.076;113.488;2023-10-31T04:59:32;3.18;39.49
60242;SHT30;46103;52.076;113.488;2023-10-31T05:02:36;2.98;40.10
60242;SHT30;46103;52.076;113.488;2023-10-31T05:05:41;2.85;40.72
60242;SHT30;46103;52.076;113.488;2023-10-31T05:09:00;2.73;41.31
60242;SHT30;46103;52.076;113.488;2023-10-31T05:12:04;2.66;41.22
60242;SHT30;46103;52.076;113.488;2023-10-31T05:15:08;2.33;41.65
60242;SHT30;46103;52.076;113.488;2023-10-31T05:18:11;2.50;41.73
60242;SHT30;46103;52.076;113.488;2023-10-31T05:21:19;2.55;41.38
60242;SHT30;46103;52.076;113.488;2023-10-31T05:24:26;2.55;41.39
60242;SHT30;46103;52.076;113.488;2023-10-31T05:27:30;2.77;41.11
60242;SHT30;46103;52.076;113.488;2023-10-31T05:30:36;2.91;39.89
60242;SHT30;46103;52.076;113.488;2023-10-31T05:33:40;2.96;39.88
60242;SHT30;46103;52.076;113.488;2023-10-31T05:36:44;3.18;39.42
60242;SHT30;46103;52.076;113.488;2023-10-31T05:39:47;3.26;38.72
60242;SHT30;46103;52.076;113.488;2023-10-31T05:42:51;3.37;38.94
60242;SHT30;46103;52.076;113.488;2023-10-31T05:45:54;3.51;38.78
60242;SHT30;46103;52.076;113.488;2023-10-31T05:48:58;3.67;38.63
60242;SHT30;46103;52.076;113.488;2023-10-31T05:52:02;3.79;38.49
60242;SHT30;46103;52.076;113.488;2023-10-31T05:55:06;3.71;38.22
60242;SHT30;46103;52.076;113.488;2023-10-31T05:58:10;3.74;37.53
60242;SHT30;46103;52.076;113.488;2023-10-31T06:01:15;3.88;37.81
60242;SHT30;46103;52.076;113.488;2023-10-31T06:04:19;4.02;37.69
60242;SHT30;46103;52.076;113.488;2023-10-31T06:07:23;4.16;37.30
60242;SHT30;46103;52.076;113.488;2023-10-31T06:10:27;4.36;36.93
60242;SHT30;46103;52.076;113.488;2023-10-31T06:13:44;4.53;36.43
60242;SHT30;46103;52.076;113.488;2023-10-31T06:16:48;4.63;36.19
60242;SHT30;46103;52.076;113.488;2023-10-31T06:19:51;4.58;35.88
60242;SHT30;46103;52.076;113.488;2023-10-31T06:22:55;4.54;35.90
60242;SHT30;46103;52.076;113.488;2023-10-31T06:25:58;4.44;35.86
60242;SHT30;46103;52.076;113.488;2023-10-31T06:29:02;4.44;35.62
60242;SHT30;46103;52.076;113.488;2023-10-31T06:32:26;4.49;35.46
60242;SHT30;46103;52.076;113.488;2023-10-31T06:35:29;4.58;35.29
60242;SHT30;46103;52.076;113.488;2023-10-31T06:38:33;4.71;35.09
60242;SHT30;46103;52.076;113.488;2023-10-31T06:41:37;4.84;34.62
60242;SHT30;46103;52.076;113.488;2023-10-31T06:44:41;4.89;34.93
60242;SHT30;46103;52.076;113.488;2023-10-31T06:47:45;5.36;34.17
60242;SHT30;46103;52.076;113.488;2023-10-31T06:50:49;5.73;33.49
60242;SHT30;46103;52.076;113.488;2023-10-31T06:53:52;6.13;32.92
60242;SHT30;46103;52.076;113.488;2023-10-31T06:56:56;6.19;32.74
60242;SHT30;46103;52.076;113.488;2023-10-31T07:00:00;6.11;32.77
60242;SHT30;46103;52.076;113.488;2023-10-31T07:03:08;6.25;32.59
60242;SHT30;46103;52.076;113.488;2023-10-31T07:06:21;6.30;32.41
60242;SHT30;46103;52.076;113.488;2023-10-31T07:09:25;6.40;32.45
60242;SHT30;46103;52.076;113.488;2023-10-31T07:12:29;6.50;32.21
60242;SHT30;46103;52.076;113.488;2023-10-31T07:15:33;6.61;31.95
60242;SHT30;46103;52.076;113.488;2023-10-31T07:18:41;6.66;31.74
60242;SHT30;46103;52.076;113.488;2023-10-31T07:21:45;6.74;31.65
60242;SHT30;46103;52.076;113.488;2023-10-31T07:24:48;6.81;31.44
60242;SHT30;46103;52.076;113.488;2023-10-31T07:27:51;6.90;31.14
60242;SHT30;46103;52.076;113.488;2023-10-31T07:30:54;6.61;31.56
60242;SHT30;46103;52.076;113.488;2023-10-31T07:33:59;6.47;31.81
60242;SHT30;46103;52.076;113.488;2023-10-31T07:37:02;6.37;31.87
60242;SHT30;46103;52.076;113.488;2023-10-31T07:40:07;6.23;31.86
60242;SHT30;46103;52.076;113.488;2023-10-31T07:43:11;5.74;32.54
60242;SHT30;46103;52.076;113.488;2023-10-31T07:46:16;5.44;32.55
60242;SHT30;46103;52.076;113.488;2023-10-31T07:49:20;5.13;33.10
60242;SHT30;46103;52.076;113.488;2023-10-31T07:52:23;4.96;33.43
60242;SHT30;46103;52.076;113.488;2023-10-31T07:55:27;4.80;33.42
60242;SHT30;46103;52.076;113.488;2023-10-31T07:58:31;4.56;33.68
60242;SHT30;46103;52.076;113.488;2023-10-31T08:01:35;4.36;33.96
60242;SHT30;46103;52.076;113.488;2023-10-31T08:04:39;4.20;34.37
60242;SHT30;46103;52.076;113.488;2023-10-31T08:07:43;4.09;34.47
60242;SHT30;46103;52.076;113.488;2023-10-31T08:10:47;3.96;34.57
60242;SHT30;46103;52.076;113.488;2023-10-31T08:13:52;3.87;34.75
60242;SHT30;46103;52.076;113.488;2023-10-31T08:16:56;3.87;34.76
60242;SHT30;46103;52.076;113.488;2023-10-31T08:20:00;3.79;34.84
60242;SHT30;46103;52.076;113.488;2023-10-31T08:23:03;3.68;34.96
60242;SHT30;46103;52.076;113.488;2023-10-31T08:26:07;3.50;35.26
60242;SHT30;46103;52.076;113.488;2023-10-31T08:29:10;3.43;35.72
60242;SHT30;46103;52.076;113.488;2023-10-31T08:32:14;3.31;35.89
60242;SHT30;46103;52.076;113.488;2023-10-31T08:35:18;3.31;36.31
60242;SHT30;46103;52.076;113.488;2023-10-31T08:38:22;3.30;36.06
60242;SHT30;46103;52.076;113.488;2023-10-31T08:41:33;3.23;36.43
60242;SHT30;46103;52.076;113.488;2023-10-31T08:44:39;3.13;36.25
60242;SHT30;46103;52.076;113.488;2023-10-31T08:47:43;3.05;36.51
60242;SHT30;46103;52.076;113.488;2023-10-31T08:50:47;2.96;36.45
60242;SHT30;46103;52.076;113.488;2023-10-31T08:53:51;2.75;36.93
60242;SHT30;46103;52.076;113.488;2023-10-31T08:56:57;2.74;37.14
60242;SHT30;46103;52.076;113.488;2023-10-31T09:00:01;2.70;37.27
60242;SHT30;46103;52.076;113.488;2023-10-31T09:03:10;2.64;37.38
60242;SHT30;46103;52.076;113.488;2023-10-31T09:06:14;2.57;37.67
60242;SHT30;46103;52.076;113.488;2023-10-31T09:09:20;2.50;37.92
60242;SHT30;46103;52.076;113.488;2023-10-31T09:12:24;2.46;37.90
60242;SHT30;46103;52.076;113.488;2023-10-31T09:15:31;2.29;37.88
60242;SHT30;46103;52.076;113.488;2023-10-31T09:18:35;2.23;38.06
60242;SHT30;46103;52.076;113.488;2023-10-31T09:21:39;2.16;38.04
60242;SHT30;46103;52.076;113.488;2023-10-31T09:24:42;2.06;38.25
60242;SHT30;46103;52.076;113.488;2023-10-31T09:27:48;1.99;38.31
60242;SHT30;46103;52.076;113.488;2023-10-31T09:30:51;1.95;38.36
60242;SHT30;46103;52.076;113.488;2023-10-31T09:33:56;1.95;38.36
60242;SHT30;46103;52.076;113.488;2023-10-31T09:37:03;1.95;38.42
60242;SHT30;46103;52.076;113.488;2023-10-31T09:40:10;1.92;38.30
60242;SHT30;46103;52.076;113.488;2023-10-31T09:43:14;1.86;38.35
60242;SHT30;46103;52.076;113.488;2023-10-31T09:46:18;1.88;38.36
60242;SHT30;46103;52.076;113.488;2023-10-31T09:49:21;1.83;38.68
60242;SHT30;46103;52.076;113.488;2023-10-31T09:52:25;1.77;38.88
60242;SHT30;46103;52.076;113.488;2023-10-31T09:55:32;1.74;39.14
60242;SHT30;46103;52.076;113.488;2023-10-31T09:58:36;1.64;39.46
60242;SHT30;46103;52.076;113.488;2023-10-31T10:01:43;1.60;39.60
60242;SHT30;46103;52.076;113.488;2023-10-31T10:04:49;1.51;39.86
60242;SHT30;46103;52.076;113.488;2023-10-31T10:07:56;1.50;39.93
60242;SHT30;46103;52.076;113.488;2023-10-31T10:11:02;1.44;40.23
60242;SHT30;46103;52.076;113.488;2023-10-31T10:14:06;1.36;40.24
60242;SHT30;46103;52.076;113.488;2023-10-31T10:17:21;1.32;40.29
60242;SHT30;46103;52.076;113.488;2023-10-31T10:20:25;1.20;40.44
60242;SHT30;46103;52.076;113.488;2023-10-31T10:23:52;1.12;40.05
60242;SHT30;46103;52.076;113.488;2023-10-31T10:26:55;1.10;39.96
60242;SHT30;46103;52.076;113.488;2023-10-31T10:29:59;1.13;39.92
60242;SHT30;46103;52.076;113.488;2023-10-31T10:33:05;1.12;39.96
60242;SHT30;46103;52.076;113.488;2023-10-31T10:36:10;1.13;40.04
60242;SHT30;46103;52.076;113.488;2023-10-31T10:39:22;1.15;40.01
60242;SHT30;46103;52.076;113.488;2023-10-31T10:42:33;1.17;40.02
60242;SHT30;46103;52.076;113.488;2023-10-31T10:45:43;1.15;40.07
60242;SHT30;46103;52.076;113.488;2023-10-31T10:48:55;1.12;40.32
60242;SHT30;46103;52.076;113.488;2023-10-31T10:52:22;1.03;40.78
60242;SHT30;46103;52.076;113.488;2023-10-31T10:55:31;0.95;41.16
60242;SHT30;46103;52.076;113.488;2023-10-31T11:01:46;0.88;41.17
60242;SHT30;46103;52.076;113.488;2023-10-31T11:04:50;0.86;41.41
60242;SHT30;46103;52.076;113.488;2023-10-31T11:07:57;0.92;41.39
60242;SHT30;46103;52.076;113.488;2023-10-31T11:11:05;0.93;41.38
60242;SHT30;46103;52.076;113.488;2023-10-31T11:14:10;0.92;41.63
60242;SHT30;46103;52.076;113.488;2023-10-31T11:17:24;0.79;41.96
60242;SHT30;46103;52.076;113.488;2023-10-31T11:20:29;0.74;42.22
60242;SHT30;46103;52.076;113.488;2023-10-31T11:23:33;0.64;42.68
60242;SHT30;46103;52.076;113.488;2023-10-31T11:26:51;0.46;42.95
60242;SHT30;46103;52.076;113.488;2023-10-31T11:29:55;0.30;43.46
60242;SHT30;46103;52.076;113.488;2023-10-31T11:33:02;0.26;43.91
60242;SHT30;46103;52.076;113.488;2023-10-31T11:36:06;0.14;43.84
60242;SHT30;46103;52.076;113.488;2023-10-31T11:39:21;0.09;44.21
60242;SHT30;46103;52.076;113.488;2023-10-31T11:42:31;-0.01;44.34
60242;SHT30;46103;52.076;113.488;2023-10-31T11:45:41;-0.12;44.77
60242;SHT30;46103;52.076;113.488;2023-10-31T11:48:52;-0.22;44.91
60242;SHT30;46103;52.076;113.488;2023-10-31T11:51:57;-0.33;44.68
60242;SHT30;46103;52.076;113.488;2023-10-31T11:59:36;-0.57;46.09
60242;SHT30;46103;52.076;113.488;2023-10-31T12:02:41;-0.67;46.26
60242;SHT30;46103;52.076;113.488;2023-10-31T12:05:59;-0.73;46.69
60242;SHT30;46103;52.076;113.488;2023-10-31T12:09:08;-0.80;46.94
60242;SHT30;46103;52.076;113.488;2023-10-31T12:12:13;-0.77;47.08
60242;SHT30;46103;52.076;113.488;2023-10-31T12:15:17;-0.83;47.21
60242;SHT30;46103;52.076;113.488;2023-10-31T12:18:21;-0.87;47.38
60242;SHT30;46103;52.076;113.488;2023-10-31T12:21:45;-0.94;47.67
60242;SHT30;46103;52.076;113.488;2023-10-31T12:25:00;-1.04;47.87
60242;SHT30;46103;52.076;113.488;2023-10-31T12:28:07;-1.11;48.10
60242;SHT30;46103;52.076;113.488;2023-10-31T12:31:15;-1.12;48.01
60242;SHT30;46103;52.076;113.488;2023-10-31T12:34:43;-1.22;48.43
60242;SHT30;46103;52.076;113.488;2023-10-31T12:37:50;-1.27;48.60
60242;SHT30;46103;52.076;113.488;2023-10-31T12:41:32;-1.35;48.34
60242;SHT30;46103;52.076;113.488;2023-10-31T12:45:14;-1.49;49.17
60242;SHT30;46103;52.076;113.488;2023-10-31T12:48:23;-1.55;49.03
60242;SHT30;46103;52.076;113.488;2023-10-31T12:51:32;-1.55;49.17
60242;SHT30;46103;52.076;113.488;2023-10-31T12:54:38;-1.63;49.41
60242;SHT30;46103;52.076;113.488;2023-10-31T12:57:42;-1.67;49.37
60242;SHT30;46103;52.076;113.488;2023-10-31T13:00:46;-1.74;49.74
60242;SHT30;46103;52.076;113.488;2023-10-31T13:03:52;-1.80;49.88
60242;SHT30;46103;52.076;113.488;2023-10-31T13:07:26;-1.86;49.90
60242;SHT30;46103;52.076;113.488;2023-10-31T13:10:31;-1.89;50.12
60242;SHT30;46103;52.076;113.488;2023-10-31T13:13:37;-1.87;50.27
60242;SHT30;46103;52.076;113.488;2023-10-31T13:16:40;-1.97;50.88
60242;SHT30;46103;52.076;113.488;2023-10-31T13:19:46;-2.09;50.48
60242;SHT30;46103;52.076;113.488;2023-10-31T13:22:50;-2.31;50.72
60242;SHT30;46103;52.076;113.488;2023-10-31T13:25:53;-2.41;50.94
60242;SHT30;46103;52.076;113.488;2023-10-31T13:28:58;-2.46;50.84
60242;SHT30;46103;52.076;113.488;2023-10-31T13:32:03;-2.53;50.85
60242;SHT30;46103;52.076;113.488;2023-10-31T13:35:08;-2.80;51.56
60242;SHT30;46103;52.076;113.488;2023-10-31T13:38:20;-2.97;52.13
60242;SHT30;46103;52.076;113.488;2023-10-31T13:41:25;-3.27;53.12
60242;SHT30;46103;52.076;113.488;2023-10-31T13:44:33;-3.25;53.49
60242;SHT30;46103;52.076;113.488;2023-10-31T13:47:36;-3.30;53.15
60242;SHT30;46103;52.076;113.488;2023-10-31T13:50:42;-3.31;53.17
60242;SHT30;46103;52.076;113.488;2023-10-31T13:53:46;-3.32;53.28
60242;SHT30;46103;52.076;113.488;2023-10-31T13:56:56;-3.34;53.38
60242;SHT30;46103;52.076;113.488;2023-10-31T13:59:59;-3.34;54.14
60242;SHT30;46103;52.076;113.488;2023-10-31T14:03:13;-3.30;54.00
60242;SHT30;46103;52.076;113.488;2023-10-31T14:06:17;-3.25;53.85
60242;SHT30;46103;52.076;113.488;2023-10-31T14:09:21;-3.28;53.48
60242;SHT30;46103;52.076;113.488;2023-10-31T14:12:25;-3.30;53.72
60242;SHT30;46103;52.076;113.488;2023-10-31T14:19:39;-3.41;54.49
60242;SHT30;46103;52.076;113.488;2023-10-31T14:22:51;-3.42;54.32
60242;SHT30;46103;52.076;113.488;2023-10-31T14:26:09;-3.43;54.81
60242;SHT30;46103;52.076;113.488;2023-10-31T14:29:14;-3.46;54.93
60242;SHT30;46103;52.076;113.488;2023-10-31T14:32:18;-3.50;54.82
60242;SHT30;46103;52.076;113.488;2023-10-31T14:35:44;-3.60;54.99
60242;SHT30;46103;52.076;113.488;2023-10-31T14:39:01;-3.66;55.08
60242;SHT30;46103;52.076;113.488;2023-10-31T14:42:36;-3.73;55.30
60242;SHT30;46103;52.076;113.488;2023-10-31T14:45:51;-3.87;55.82
60242;SHT30;46103;52.076;113.488;2023-10-31T14:48:58;-3.95;55.90
60242;SHT30;46103;52.076;113.488;2023-10-31T14:52:02;-4.05;55.83
60242;SHT30;46103;52.076;113.488;2023-10-31T14:55:31;-4.32;56.90
60242;SHT30;46103;52.076;113.488;2023-10-31T14:58:37;-4.41;57.31
60242;SHT30;46103;52.076;113.488;2023-10-31T15:01:40;-4.44;57.00
60242;SHT30;46103;52.076;113.488;2023-10-31T15:04:58;-4.52;57.16
60242;SHT30;46103;52.076;113.488;2023-10-31T15:08:01;-4.53;57.01
60242;SHT30;46103;52.076;113.488;2023-10-31T15:11:06;-4.62;57.28
60242;SHT30;46103;52.076;113.488;2023-10-31T15:14:10;-4.74;57.81
60242;SHT30;46103;52.076;113.488;2023-10-31T15:17:14;-4.84;58.58
60242;SHT30;46103;52.076;113.488;2023-10-31T15:20:18;-4.91;58.96
60242;SHT30;46103;52.076;113.488;2023-10-31T15:23:30;-4.97;58.78
60242;SHT30;46103;52.076;113.488;2023-10-31T15:26:34;-5.07;58.95
60242;SHT30;46103;52.076;113.488;2023-10-31T15:29:41;-5.12;58.94
60242;SHT30;46103;52.076;113.488;2023-10-31T15:32:45;-5.16;59.24
60242;SHT30;46103;52.076;113.488;2023-10-31T15:35:50;-5.23;59.40
60242;SHT30;46103;52.076;113.488;2023-10-31T15:38:53;-5.26;59.53
60242;SHT30;46103;52.076;113.488;2023-10-31T15:41:58;-5.31;60.23
60242;SHT30;46103;52.076;113.488;2023-10-31T15:45:01;-5.42;60.30
60242;SHT30;46103;52.076;113.488;2023-10-31T15:48:06;-5.52;60.89
60242;SHT30;46103;52.076;113.488;2023-10-31T15:51:14;-5.58;61.33
60242;SHT30;46103;52.076;113.488;2023-10-31T15:54:40;-5.50;60.89
60242;SHT30;46103;52.076;113.488;2023-10-31T15:58:03;-5.46;60.90
60242;SHT30;46103;52.076;113.488;2023-10-31T16:02:08;-5.46;60.98
60242;SHT30;46103;52.076;113.488;2023-10-31T16:05:27;-5.58;60.54
60242;SHT30;46103;52.076;113.488;2023-10-31T16:08:36;-5.74;61.88
60242;SHT30;46103;52.076;113.488;2023-10-31T16:11:43;-5.73;62.34
60242;SHT30;46103;52.076;113.488;2023-10-31T16:14:51;-5.84;61.65
60242;SHT30;46103;52.076;113.488;2023-10-31T16:17:54;-5.79;62.19
60242;SHT30;46103;52.076;113.488;2023-10-31T16:21:00;-5.79;62.05
60242;SHT30;46103;52.076;113.488;2023-10-31T16:24:04;-5.81;61.54
60242;SHT30;46103;52.076;113.488;2023-10-31T16:27:09;-5.86;61.57
60242;SHT30;46103;52.076;113.488;2023-10-31T16:30:13;-5.83;61.57
60242;SHT30;46103;52.076;113.488;2023-10-31T16:33:17;-5.91;61.57
60242;SHT30;46103;52.076;113.488;2023-10-31T16:36:22;-5.97;61.71
60242;SHT30;46103;52.076;113.488;2023-10-31T16:39:26;-6.18;61.24
60242;SHT30;46103;52.076;113.488;2023-10-31T16:42:29;-6.29;62.28
60242;SHT30;46103;52.076;113.488;2023-10-31T16:45:38;-6.32;63.13
60242;SHT30;46103;52.076;113.488;2023-10-31T16:48:42;-6.33;62.39
60242;SHT30;46103;52.076;113.488;2023-10-31T16:51:50;-6.36;62.66
60242;SHT30;46103;52.076;113.488;2023-10-31T16:54:53;-6.36;62.57
60242;SHT30;46103;52.076;113.488;2023-10-31T16:57:58;-6.35;62.82
60242;SHT30;46103;52.076;113.488;2023-10-31T17:01:05;-6.36;62.90
60242;SHT30;46103;52.076;113.488;2023-10-31T17:04:09;-6.38;62.89
60242;SHT30;46103;52.076;113.488;2023-10-31T17:07:13;-6.38;63.01
60242;SHT30;46103;52.076;113.488;2023-10-31T17:10:19;-6.33;63.30
60242;SHT30;46103;52.076;113.488;2023-10-31T17:13:23;-6.38;63.50
60242;SHT30;46103;52.076;113.488;2023-10-31T17:16:28;-6.35;62.98
60242;SHT30;46103;52.076;113.488;2023-10-31T17:19:32;-6.38;62.76
60242;SHT30;46103;52.076;113.488;2023-10-31T17:22:36;-6.40;63.52
60242;SHT30;46103;52.076;113.488;2023-10-31T17:25:42;-6.38;63.22
60242;SHT30;46103;52.076;113.488;2023-10-31T17:28:48;-6.33;63.36
60242;SHT30;46103;52.076;113.488;2023-10-31T17:31:54;-6.36;63.10
60242;SHT30;46103;52.076;113.488;2023-10-31T17:35:01;-6.45;63.53
60242;SHT30;46103;52.076;113.488;2023-10-31T17:38:06;-6.50;63.80
60242;SHT30;46103;52.076;113.488;2023-10-31T17:41:10;-6.56;63.92
60242;SHT30;46103;52.076;113.488;2023-10-31T17:44:14;-6.53;63.73
60242;SHT30;46103;52.076;113.488;2023-10-31T17:47:17;-6.62;63.53
60242;SHT30;46103;52.076;113.488;2023-10-31T17:50:22;-6.67;63.56
60242;SHT30;46103;52.076;113.488;2023-10-31T17:53:26;-6.73;63.66
60242;SHT30;46103;52.076;113.488;2023-10-31T17:56:30;-6.76;63.74
60242;SHT30;46103;52.076;113.488;2023-10-31T17:59:35;-6.87;64.33
60242;SHT30;46103;52.076;113.488;2023-10-31T18:02:39;-6.91;64.71
60242;SHT30;46103;52.076;113.488;2023-10-31T18:05:43;-6.97;64.18
60242;SHT30;46103;52.076;113.488;2023-10-31T18:08:48;-7.00;64.48
60242;SHT30;46103;52.076;113.488;2023-10-31T18:11:53;-6.97;65.14
60242;SHT30;46103;52.076;113.488;2023-10-31T18:14:57;-6.95;64.88
60242;SHT30;46103;52.076;113.488;2023-10-31T18:18:03;-7.00;64.83
60242;SHT30;46103;52.076;113.488;2023-10-31T18:24:43;-6.98;64.44
60242;SHT30;46103;52.076;113.488;2023-10-31T18:27:49;-7.05;64.50
60242;SHT30;46103;52.076;113.488;2023-10-31T18:30:53;-7.05;64.72
60242;SHT30;46103;52.076;113.488;2023-10-31T18:33:57;-7.08;65.12
60242;SHT30;46103;52.076;113.488;2023-10-31T18:37:02;-7.04;64.79
60242;SHT30;46103;52.076;113.488;2023-10-31T18:40:06;-7.03;64.58
60242;SHT30;46103;52.076;113.488;2023-10-31T18:43:12;-7.08;64.97
60242;SHT30;46103;52.076;113.488;2023-10-31T18:46:16;-7.07;65.01
60242;SHT30;46103;52.076;113.488;2023-10-31T18:49:20;-7.11;64.74
60242;SHT30;46103;52.076;113.488;2023-10-31T18:52:25;-7.16;64.91
60242;SHT30;46103;52.076;113.488;2023-10-31T18:55:29;-7.22;64.86
60242;SHT30;46103;52.076;113.488;2023-10-31T18:58:32;-7.28;64.29
60242;SHT30;46103;52.076;113.488;2023-10-31T19:01:37;-7.39;64.72
60242;SHT30;46103;52.076;113.488;2023-10-31T19:04:40;-7.49;64.66
60242;SHT30;46103;52.076;113.488;2023-10-31T19:07:45;-7.56;65.35
60242;SHT30;46103;52.076;113.488;2023-10-31T19:10:50;-7.67;65.44
60242;SHT30;46103;52.076;113.488;2023-10-31T19:13:53;-7.71;65.63
60242;SHT30;46103;52.076;113.488;2023-10-31T19:16:58;-7.71;65.84
60242;SHT30;46103;52.076;113.488;2023-10-31T19:20:03;-7.73;65.53
60242;SHT30;46103;52.076;113.488;2023-10-31T19:23:06;-7.74;65.70